Time;durP1;ratioP1;P1;durP2;ratioP2;P2;SDS_P1;SDS_P2;PMS_P1;PMS_P2;Temp;Humidity;BMP_temperature;BMP_pressure;BME280_temperature;BME280_humidity;BME280_pressure;Samples;Min_cycle;Max_cycle;Signal;HPM_P1;HPM_P2
2022/03/04 00:00:29;;;;;;;21.88;10.85;;;;;;;;;;5074091;28;20044;-64
2022/03/04 00:02:55;;;;;;;21.55;10.38;;;;;;;;;;5080778;28;20541;-64
2022/03/04 00:05:21;;;;;;;21.70;11.55;;;;;;;;;;5077405;28;20127;-64
2022/03/04 00:07:47;;;;;;;18.42;10.45;;;;;;;;;;5078615;28;20046;-63
2022/03/04 00:10:13;;;;;;;20.98;10.90;;;;;;;;;;5078059;28;20927;-64
2022/03/04 00:12:39;;;;;;;20.83;10.45;;;;;;;;;;5080224;28;20050;-64
2022/03/04 00:15:05;;;;;;;19.42;10.35;;;;;;;;;;5082399;28;20405;-63
2022/03/04 00:17:31;;;;;;;21.02;10.20;;;;;;;;;;5080431;28;20063;-63
2022/03/04 00:19:57;;;;;;;19.48;10.65;;;;;;;;;;5082609;28;20094;-63
2022/03/04 00:22:23;;;;;;;18.55;10.02;;;;;;;;;;5081573;28;20093;-64
2022/03/04 00:24:49;;;;;;;18.90;10.13;;;;;;;;;;5086659;28;20036;-64
2022/03/04 00:27:16;;;;;;;18.15;9.65;;;;;;;;;;5087602;28;20090;-64
2022/03/04 00:29:42;;;;;;;18.98;9.70;;;;;;;;;;5082638;28;20113;-64
2022/03/04 00:32:08;;;;;;;16.27;8.70;;;;;;;;;;5080271;28;20570;-64
2022/03/04 00:34:34;;;;;;;16.17;9.65;;;;;;;;;;5091857;28;20036;-64
2022/03/04 00:37:00;;;;;;;19.38;9.73;;;;;;;;;;5092440;28;20131;-64
2022/03/04 00:39:26;;;;;;;19.15;10.32;;;;;;;;;;5083141;28;20048;-64
2022/03/04 00:41:52;;;;;;;15.63;8.73;;;;;;;;;;5079514;28;20036;-63
2022/03/04 00:44:18;;;;;;;15.93;8.73;;;;;;;;;;5082204;28;20059;-65
2022/03/04 00:46:44;;;;;;;17.77;9.38;;;;;;;;;;5081936;28;20512;-64
2022/03/04 00:49:10;;;;;;;17.75;8.75;;;;;;;;;;5084757;28;20119;-63
2022/03/04 00:51:36;;;;;;;16.38;9.65;;;;;;;;;;5081764;28;20121;-64
2022/03/04 00:54:02;;;;;;;16.85;8.98;;;;;;;;;;5082096;28;20091;-64
2022/03/04 00:56:28;;;;;;;15.73;8.85;;;;;;;;;;5081161;28;20047;-64
2022/03/04 00:58:54;;;;;;;16.05;8.73;;;;;;;;;;5082482;28;20048;-64
2022/03/04 01:01:20;;;;;;;17.75;8.77;;;;;;;;;;5083859;28;20704;-64
2022/03/04 01:03:46;;;;;;;17.30;8.90;;;;;;;;;;5081586;28;20044;-64
2022/03/04 01:06:12;;;;;;;15.68;8.05;;;;;;;;;;5082539;28;20028;-63
2022/03/04 01:08:38;;;;;;;15.75;8.85;;;;;;;;;;5082617;28;20036;-63
2022/03/04 01:11:04;;;;;;;16.25;8.70;;;;;;;;;;5080677;28;20040;-63
2022/03/04 01:13:30;;;;;;;14.48;8.18;;;;;;;;;;5080188;28;20071;-64
2022/03/04 01:15:56;;;;;;;14.55;8.10;;;;;;;;;;5081626;28;20044;-63
2022/03/04 01:18:23;;;;;;;16.02;8.80;;;;;;;;;;5083215;28;20044;-63
2022/03/04 01:20:49;;;;;;;14.65;8.30;;;;;;;;;;5080574;28;20479;-63
2022/03/04 01:23:15;;;;;;;17.40;8.68;;;;;;;;;;5081712;28;20047;-64
2022/03/04 01:25:41;;;;;;;15.23;8.15;;;;;;;;;;5078317;28;20028;-66
2022/03/04 01:28:07;;;;;;;15.00;8.43;;;;;;;;;;5076179;28;20042;-63
2022/03/04 01:30:33;;;;;;;16.45;7.90;;;;;;;;;;5083362;28;20123;-64
2022/03/04 01:32:59;;;;;;;13.85;8.05;;;;;;;;;;5080317;28;20040;-63
2022/03/04 01:35:25;;;;;;;15.45;7.95;;;;;;;;;;5083045;28;20553;-63
2022/03/04 01:37:51;;;;;;;14.95;8.80;;;;;;;;;;5082129;28;20048;-63
2022/03/04 01:40:17;;;;;;;16.13;8.18;;;;;;;;;;5081717;28;20067;-64
2022/03/04 01:42:43;;;;;;;14.38;7.93;;;;;;;;;;5081254;28;20042;-64
2022/03/04 01:45:10;;;;;;;16.15;8.15;;;;;;;;;;5082073;28;20509;-64
2022/03/04 01:47:39;;;;;;;17.30;8.93;;;;;;;;;;5080484;28;20047;-64
2022/03/04 01:50:05;;;;;;;15.63;8.50;;;;;;;;;;5083781;28;20051;-63
2022/03/04 01:52:31;;;;;;;17.63;8.70;;;;;;;;;;5085576;28;20490;-64
2022/03/04 01:54:57;;;;;;;15.98;7.93;;;;;;;;;;5083725;28;20402;-64
2022/03/04 01:57:23;;;;;;;15.27;8.27;;;;;;;;;;5089269;28;20490;-63
2022/03/04 01:59:49;;;;;;;17.35;7.47;;;;;;;;;;5083134;28;20487;-63
2022/03/04 02:02:15;;;;;;;16.27;8.70;;;;;;;;;;5087657;28;20032;-63
2022/03/04 02:04:43;;;;;;;16.00;8.20;;;;;;;;;;5089721;28;20135;-64
2022/03/04 02:07:09;;;;;;;15.15;8.10;;;;;;;;;;5083556;28;20475;-63
2022/03/04 02:09:35;;;;;;;16.70;8.60;;;;;;;;;;5088793;28;20032;-63
2022/03/04 02:12:01;;;;;;;14.52;7.55;;;;;;;;;;5086404;28;20024;-63
2022/03/04 02:14:27;;;;;;;16.50;8.48;;;;;;;;;;5087924;28;20081;-63
2022/03/04 02:16:54;;;;;;;15.70;7.93;;;;;;;;;;5088301;28;20040;-63
2022/03/04 02:19:21;;;;;;;19.23;8.55;;;;;;;;;;5084990;28;20504;-64
2022/03/04 02:21:54;;;;;;;17.30;8.35;;;;;;;;;;5085574;28;20047;-63
2022/03/04 02:24:22;;;;;;;14.88;7.47;;;;;;;;;;5084799;28;20441;-64
2022/03/04 02:26:49;;;;;;;14.13;8.10;;;;;;;;;;5087020;28;20458;-63
2022/03/04 02:29:15;;;;;;;14.80;7.75;;;;;;;;;;5089187;28;20039;-63
2022/03/04 02:31:41;;;;;;;14.23;7.80;;;;;;;;;;5085665;28;20044;-63
2022/03/04 02:34:07;;;;;;;18.40;9.07;;;;;;;;;;5085907;28;20047;-64
2022/03/04 02:36:33;;;;;;;15.95;8.25;;;;;;;;;;5087369;28;20440;-63
2022/03/04 02:38:59;;;;;;;13.75;7.95;;;;;;;;;;5079878;28;20143;-63
2022/03/04 02:41:25;;;;;;;16.30;8.40;;;;;;;;;;5089444;28;20093;-64
2022/03/04 02:43:51;;;;;;;16.08;8.50;;;;;;;;;;5082751;28;20048;-64
2022/03/04 02:46:18;;;;;;;17.10;8.75;;;;;;;;;;5088414;28;20032;-64
2022/03/04 02:48:44;;;;;;;18.02;9.77;;;;;;;;;;5088400;28;20043;-64
2022/03/04 02:51:10;;;;;;;23.52;8.40;;;;;;;;;;5087417;28;20075;-64
2022/03/04 02:53:36;;;;;;;17.38;9.05;;;;;;;;;;5085163;28;20063;-64
2022/03/04 02:56:02;;;;;;;16.15;8.13;;;;;;;;;;5088670;28;20055;-63
2022/03/04 02:58:28;;;;;;;15.95;8.27;;;;;;;;;;5088234;28;20089;-63
2022/03/04 03:00:54;;;;;;;17.50;8.82;;;;;;;;;;5085631;28;20843;-64
2022/03/04 03:03:20;;;;;;;16.77;8.40;;;;;;;;;;5088900;28;20521;-63
2022/03/04 03:05:46;;;;;;;18.10;8.77;;;;;;;;;;5086495;28;20044;-64
2022/03/04 03:08:12;;;;;;;16.17;8.75;;;;;;;;;;5088628;28;20044;-63
2022/03/04 03:10:39;;;;;;;17.10;8.65;;;;;;;;;;5087363;28;20063;-63
2022/03/04 03:13:05;;;;;;;17.02;8.77;;;;;;;;;;5088562;28;20039;-63
2022/03/04 03:15:31;;;;;;;18.60;8.70;;;;;;;;;;5084230;28;20048;-64
2022/03/04 03:17:57;;;;;;;16.00;9.23;;;;;;;;;;5080781;28;20379;-63
2022/03/04 03:20:23;;;;;;;17.80;9.45;;;;;;;;;;5087566;28;20036;-63
2022/03/04 03:22:49;;;;;;;16.17;7.85;;;;;;;;;;5089695;28;20075;-63
2022/03/04 03:25:15;;;;;;;16.27;9.27;;;;;;;;;;5078484;28;20059;-64
2022/03/04 03:27:41;;;;;;;16.60;8.50;;;;;;;;;;5075534;28;20592;-63
2022/03/04 03:30:08;;;;;;;19.02;10.20;;;;;;;;;;5079175;28;20036;-64
2022/03/04 03:32:34;;;;;;;16.65;9.55;;;;;;;;;;5080840;28;20050;-63
2022/03/04 03:35:01;;;;;;;18.63;9.60;;;;;;;;;;5076904;28;20047;-63
2022/03/04 03:37:27;;;;;;;17.65;9.63;;;;;;;;;;5076655;28;20097;-64
2022/03/04 03:39:53;;;;;;;19.42;9.27;;;;;;;;;;5078178;28;20056;-63
2022/03/04 03:42:19;;;;;;;21.42;9.95;;;;;;;;;;5079116;28;20032;-64
2022/03/04 03:44:46;;;;;;;17.38;9.57;;;;;;;;;;5080587;28;20483;-63
2022/03/04 03:47:12;;;;;;;24.27;10.63;;;;;;;;;;5082848;28;20500;-63
2022/03/04 03:49:38;;;;;;;19.13;10.07;;;;;;;;;;5082578;28;20440;-63
2022/03/04 03:52:05;;;;;;;19.38;10.43;;;;;;;;;;5081326;28;20043;-64
2022/03/04 03:54:31;;;;;;;18.95;10.02;;;;;;;;;;5085156;28;20078;-63
2022/03/04 03:56:57;;;;;;;17.80;9.43;;;;;;;;;;5083185;28;20060;-63
2022/03/04 03:59:23;;;;;;;16.73;9.93;;;;;;;;;;5083121;28;20056;-63
2022/03/04 04:01:49;;;;;;;20.80;11.18;;;;;;;;;;5083604;28;20043;-63
2022/03/04 04:04:15;;;;;;;21.38;10.40;;;;;;;;;;5080393;28;20406;-63
2022/03/04 04:06:42;;;;;;;19.08;10.30;;;;;;;;;;5082295;28;20051;-63
2022/03/04 04:09:08;;;;;;;19.92;10.95;;;;;;;;;;5082060;28;20044;-64
2022/03/04 04:11:35;;;;;;;21.83;10.95;;;;;;;;;;5086980;28;20047;-63
2022/03/04 04:14:05;;;;;;;23.92;11.40;;;;;;;;;;5092334;28;20043;-63
2022/03/04 04:16:31;;;;;;;20.40;10.77;;;;;;;;;;5086871;28;20064;-63
2022/03/04 04:18:57;;;;;;;21.13;10.52;;;;;;;;;;5084669;28;20127;-63
2022/03/04 04:21:27;;;;;;;21.05;11.02;;;;;;;;;;5083127;28;20036;-64
2022/03/04 04:23:53;;;;;;;21.70;11.35;;;;;;;;;;5081508;28;20035;-63
2022/03/04 04:26:19;;;;;;;20.77;10.90;;;;;;;;;;5090221;28;20036;-63
2022/03/04 04:28:45;;;;;;;23.13;11.40;;;;;;;;;;5089321;28;20074;-63
2022/03/04 04:31:12;;;;;;;24.63;11.85;;;;;;;;;;5090345;28;20032;-63
2022/03/04 04:33:38;;;;;;;19.80;11.23;;;;;;;;;;5083816;28;20070;-63
2022/03/04 04:36:05;;;;;;;21.20;11.30;;;;;;;;;;5085901;28;20508;-63
2022/03/04 04:38:31;;;;;;;21.80;11.60;;;;;;;;;;5090435;28;20056;-63
2022/03/04 04:40:58;;;;;;;20.60;11.15;;;;;;;;;;5091192;28;20101;-63
2022/03/04 04:43:24;;;;;;;22.77;11.68;;;;;;;;;;5083843;28;20596;-63
2022/03/04 04:45:50;;;;;;;20.90;11.20;;;;;;;;;;5082979;28;20049;-63
2022/03/04 04:48:17;;;;;;;25.20;12.65;;;;;;;;;;5083942;28;20501;-63
2022/03/04 04:50:43;;;;;;;22.98;12.07;;;;;;;;;;5083078;28;20047;-64
2022/03/04 04:53:09;;;;;;;22.73;11.55;;;;;;;;;;5082211;28;20074;-63
2022/03/04 04:55:35;;;;;;;23.65;11.93;;;;;;;;;;5078354;28;20497;-63
2022/03/04 04:58:01;;;;;;;21.00;11.60;;;;;;;;;;5085360;28;20044;-63
2022/03/04 05:00:27;;;;;;;24.45;12.00;;;;;;;;;;5081608;28;20044;-63
2022/03/04 05:02:53;;;;;;;23.70;11.98;;;;;;;;;;5082504;28;20028;-64
2022/03/04 05:05:20;;;;;;;22.27;11.88;;;;;;;;;;5082930;28;20390;-64
2022/03/04 05:07:46;;;;;;;22.23;12.18;;;;;;;;;;5097395;28;20089;-63
2022/03/04 05:10:12;;;;;;;20.55;11.55;;;;;;;;;;5096804;28;20052;-63
2022/03/04 05:12:38;;;;;;;24.15;12.35;;;;;;;;;;5081121;28;20039;-64
2022/03/04 05:15:05;;;;;;;22.10;12.23;;;;;;;;;;5082297;28;20083;-63
2022/03/04 05:17:31;;;;;;;23.13;12.80;;;;;;;;;;5085466;28;20044;-64
2022/03/04 05:19:57;;;;;;;23.48;12.13;;;;;;;;;;5082142;28;20374;-63
2022/03/04 05:22:23;;;;;;;25.30;12.65;;;;;;;;;;5087687;28;20044;-64
2022/03/04 05:24:49;;;;;;;26.60;11.80;;;;;;;;;;5091808;28;20039;-64
2022/03/04 05:27:15;;;;;;;22.00;11.80;;;;;;;;;;5084765;28;20417;-63
2022/03/04 05:29:41;;;;;;;24.90;13.35;;;;;;;;;;5082097;28;20051;-63
2022/03/04 05:32:07;;;;;;;24.52;13.02;;;;;;;;;;5081026;28;20109;-63
2022/03/04 05:34:33;;;;;;;24.25;11.73;;;;;;;;;;5084129;28;20036;-64
2022/03/04 05:37:00;;;;;;;25.45;13.55;;;;;;;;;;5083720;28;20495;-63
2022/03/04 05:39:26;;;;;;;26.23;13.80;;;;;;;;;;5083444;28;20122;-63
2022/03/04 05:41:52;;;;;;;22.50;11.25;;;;;;;;;;5081456;28;20421;-63
2022/03/04 05:44:18;;;;;;;24.80;13.25;;;;;;;;;;5082098;28;20134;-63
2022/03/04 05:46:45;;;;;;;23.83;13.43;;;;;;;;;;5081414;28;20091;-63
2022/03/04 05:49:11;;;;;;;26.95;12.57;;;;;;;;;;5081188;28;20040;-63
2022/03/04 05:51:37;;;;;;;23.27;12.68;;;;;;;;;;5080227;28;20044;-64
2022/03/04 05:54:03;;;;;;;23.15;13.43;;;;;;;;;;5080766;28;20044;-63
2022/03/04 05:56:30;;;;;;;27.58;14.38;;;;;;;;;;5078592;28;20135;-63
2022/03/04 05:58:56;;;;;;;26.63;13.95;;;;;;;;;;5080685;28;20122;-63
2022/03/04 06:01:22;;;;;;;27.25;14.10;;;;;;;;;;5086215;28;20036;-64
2022/03/04 06:03:48;;;;;;;28.95;13.63;;;;;;;;;;5079872;28;20489;-64
2022/03/04 06:06:15;;;;;;;29.73;14.10;;;;;;;;;;5078285;28;20036;-63
2022/03/04 06:08:41;;;;;;;24.92;13.73;;;;;;;;;;5082352;28;20046;-62
2022/03/04 06:11:11;;;;;;;24.85;13.45;;;;;;;;;;5079828;28;20055;-64
2022/03/04 06:13:37;;;;;;;29.38;15.30;;;;;;;;;;5078399;28;20048;-63
2022/03/04 06:16:04;;;;;;;27.10;15.20;;;;;;;;;;5079562;28;20036;-63
2022/03/04 06:18:30;;;;;;;23.65;12.55;;;;;;;;;;5078868;28;20529;-64
2022/03/04 06:20:56;;;;;;;26.67;14.32;;;;;;;;;;5079702;28;20036;-64
2022/03/04 06:23:22;;;;;;;25.52;13.93;;;;;;;;;;5081118;28;20386;-64
2022/03/04 06:25:50;;;;;;;27.80;13.75;;;;;;;;;;5080957;28;20456;-64
2022/03/04 06:28:16;;;;;;;29.50;14.05;;;;;;;;;;5080880;28;20076;-64
2022/03/04 06:30:42;;;;;;;26.83;14.02;;;;;;;;;;5081510;28;20039;-64
2022/03/04 06:35:54;;;;;;;27.83;14.23;;;;;;;;;;5080338;28;20044;-63
2022/03/04 06:38:21;;;;;;;28.67;14.68;;;;;;;;;;5079565;28;20123;-64
2022/03/04 06:40:48;;;;;;;29.58;15.25;;;;;;;;;;5081529;28;20670;-64
2022/03/04 06:43:14;;;;;;;27.77;14.70;;;;;;;;;;5077653;28;20110;-64
2022/03/04 06:45:44;;;;;;;28.38;15.60;;;;;;;;;;5084896;28;20073;-64
2022/03/04 06:48:11;;;;;;;30.50;15.55;;;;;;;;;;5089427;28;20043;-64
2022/03/04 06:50:37;;;;;;;30.90;15.60;;;;;;;;;;5087225;28;20100;-63
2022/03/04 06:53:03;;;;;;;29.50;15.55;;;;;;;;;;5088492;28;20031;-64
2022/03/04 06:55:29;;;;;;;29.50;16.05;;;;;;;;;;5088474;28;20063;-64
2022/03/04 06:57:55;;;;;;;25.35;14.38;;;;;;;;;;5088567;28;20044;-64
2022/03/04 07:00:22;;;;;;;31.50;15.35;;;;;;;;;;5087075;28;20048;-64
2022/03/04 07:02:48;;;;;;;29.60;14.80;;;;;;;;;;5083753;28;20047;-64
2022/03/04 07:05:15;;;;;;;29.13;15.65;;;;;;;;;;5085680;28;20051;-64
2022/03/04 07:07:41;;;;;;;27.55;14.40;;;;;;;;;;5084223;28;20434;-63
2022/03/04 07:10:08;;;;;;;31.50;16.42;;;;;;;;;;5086416;28;20410;-64
2022/03/04 07:12:34;;;;;;;30.45;14.90;;;;;;;;;;5086803;28;20481;-64
2022/03/04 07:15:00;;;;;;;29.33;15.05;;;;;;;;;;5089647;28;20109;-64
2022/03/04 07:17:26;;;;;;;33.33;17.80;;;;;;;;;;5090456;28;20539;-65
2022/03/04 07:19:52;;;;;;;26.48;14.38;;;;;;;;;;5087520;28;20036;-65
2022/03/04 07:22:18;;;;;;;33.47;16.92;;;;;;;;;;5089343;28;20036;-64
2022/03/04 07:24:44;;;;;;;34.20;17.30;;;;;;;;;;5094253;28;20083;-64
2022/03/04 07:27:10;;;;;;;34.15;17.02;;;;;;;;;;5094483;28;20611;-64
2022/03/04 07:29:36;;;;;;;31.02;16.17;;;;;;;;;;5090894;28;20088;-64
2022/03/04 07:32:03;;;;;;;31.92;16.73;;;;;;;;;;5094286;28;20036;-64
2022/03/04 07:34:29;;;;;;;35.00;17.67;;;;;;;;;;5094580;28;20543;-64
2022/03/04 07:36:55;;;;;;;37.05;17.08;;;;;;;;;;5095850;28;20177;-64
2022/03/04 07:39:21;;;;;;;29.08;15.48;;;;;;;;;;5091262;28;20040;-65
2022/03/04 07:41:51;;;;;;;33.42;17.00;;;;;;;;;;5093963;28;20083;-63
2022/03/04 07:44:17;;;;;;;29.02;15.88;;;;;;;;;;5094102;28;20032;-63
2022/03/04 07:46:43;;;;;;;33.05;16.60;;;;;;;;;;5094086;28;20447;-65
2022/03/04 07:49:09;;;;;;;33.72;17.00;;;;;;;;;;5093839;28;20039;-64
2022/03/04 07:51:36;;;;;;;34.47;16.48;;;;;;;;;;5093654;28;20047;-64
2022/03/04 07:54:02;;;;;;;31.17;16.25;;;;;;;;;;5075233;28;20471;-64
2022/03/04 07:56:28;;;;;;;31.00;16.92;;;;;;;;;;5093692;28;20035;-64
2022/03/04 07:58:54;;;;;;;35.40;18.88;;;;;;;;;;5093559;28;20118;-65
2022/03/04 08:01:20;;;;;;;32.55;17.48;;;;;;;;;;5092523;28;20046;-64
2022/03/04 08:03:46;;;;;;;30.92;16.70;;;;;;;;;;5093931;28;21657;-63
2022/03/04 08:06:12;;;;;;;34.25;17.90;;;;;;;;;;5093860;28;20529;-64
2022/03/04 08:08:39;;;;;;;31.38;16.35;;;;;;;;;;5093690;28;20046;-64
2022/03/04 08:11:05;;;;;;;34.47;18.48;;;;;;;;;;5093365;28;20062;-63
2022/03/04 08:13:31;;;;;;;33.83;17.05;;;;;;;;;;5093663;28;20048;-64
2022/03/04 08:15:58;;;;;;;33.50;17.75;;;;;;;;;;5093705;28;20047;-64
2022/03/04 08:18:24;;;;;;;31.60;17.30;;;;;;;;;;5093625;28;20152;-63
2022/03/04 08:20:50;;;;;;;31.52;17.17;;;;;;;;;;5092309;28;20047;-64
2022/03/04 08:23:17;;;;;;;31.00;16.67;;;;;;;;;;5091682;28;20443;-64
2022/03/04 08:25:44;;;;;;;31.95;17.52;;;;;;;;;;5092836;28;20036;-63
2022/03/04 08:28:10;;;;;;;28.10;16.13;;;;;;;;;;5093547;28;20036;-65
2022/03/04 08:30:41;;;;;;;32.83;17.42;;;;;;;;;;5093983;28;20180;-64
2022/03/04 08:33:07;;;;;;;32.88;17.63;;;;;;;;;;5094492;28;20032;-64
2022/03/04 08:35:33;;;;;;;33.42;17.52;;;;;;;;;;5093421;28;20036;-65
2022/03/04 08:38:00;;;;;;;32.70;17.70;;;;;;;;;;5093267;28;20092;-64
2022/03/04 08:40:26;;;;;;;36.17;17.75;;;;;;;;;;5091391;28;20036;-63
2022/03/04 08:42:53;;;;;;;31.27;17.15;;;;;;;;;;5092618;28;20108;-64
2022/03/04 08:45:19;;;;;;;31.48;17.92;;;;;;;;;;5092051;28;20046;-64
2022/03/04 08:47:46;;;;;;;34.92;17.00;;;;;;;;;;5093021;28;20183;-64
2022/03/04 08:50:13;;;;;;;34.45;18.20;;;;;;;;;;5093489;28;20537;-64
2022/03/04 08:52:39;;;;;;;31.25;17.67;;;;;;;;;;5093194;28;20044;-64
2022/03/04 08:55:07;;;;;;;36.17;17.20;;;;;;;;;;5092574;28;20089;-64
2022/03/04 08:57:34;;;;;;;33.50;17.05;;;;;;;;;;5092953;28;20085;-64
2022/03/04 09:00:00;;;;;;;34.40;18.33;;;;;;;;;;5092571;28;20554;-65
2022/03/04 09:02:26;;;;;;;31.90;18.08;;;;;;;;;;5093071;28;20032;-64
2022/03/04 09:04:53;;;;;;;34.95;18.25;;;;;;;;;;5092777;28;20032;-64
2022/03/04 09:07:19;;;;;;;35.00;19.02;;;;;;;;;;5092304;28;20061;-64
2022/03/04 09:09:45;;;;;;;33.60;18.15;;;;;;;;;;5092825;28;20047;-64
2022/03/04 09:12:11;;;;;;;36.15;19.17;;;;;;;;;;5092903;28;20082;-65
2022/03/04 09:14:37;;;;;;;34.75;18.08;;;;;;;;;;5070955;28;20047;-65
2022/03/04 09:17:04;;;;;;;33.85;18.48;;;;;;;;;;5092168;28;20040;-64
2022/03/04 09:19:34;;;;;;;33.22;18.10;;;;;;;;;;5092379;28;20039;-64
2022/03/04 09:22:00;;;;;;;31.08;16.27;;;;;;;;;;5092360;28;20036;-63
2022/03/04 09:24:28;;;;;;;31.25;16.85;;;;;;;;;;5092427;28;20028;-65
2022/03/04 09:26:55;;;;;;;31.00;16.60;;;;;;;;;;5092128;28;20055;-64
2022/03/04 09:29:21;;;;;;;28.73;16.85;;;;;;;;;;5092164;28;20041;-64
2022/03/04 09:31:47;;;;;;;30.92;17.10;;;;;;;;;;5092099;28;20093;-64
2022/03/04 09:34:13;;;;;;;33.40;17.00;;;;;;;;;;5092383;28;20044;-65
2022/03/04 09:36:39;;;;;;;31.50;16.67;;;;;;;;;;5092115;28;20040;-63
2022/03/04 09:39:06;;;;;;;32.17;16.88;;;;;;;;;;5091632;28;20042;-64
2022/03/04 09:41:32;;;;;;;29.90;16.50;;;;;;;;;;5091692;28;20413;-64
2022/03/04 09:43:58;;;;;;;31.60;17.70;;;;;;;;;;5091940;28;20448;-63
2022/03/04 09:46:24;;;;;;;29.42;16.48;;;;;;;;;;5091683;28;20451;-65
2022/03/04 09:48:52;;;;;;;28.27;15.77;;;;;;;;;;5091750;28;20130;-64
2022/03/04 09:51:18;;;;;;;31.45;17.55;;;;;;;;;;5091529;28;20043;-65
2022/03/04 09:53:45;;;;;;;29.08;16.73;;;;;;;;;;5091759;28;20078;-63
2022/03/04 09:56:12;;;;;;;30.77;18.30;;;;;;;;;;5090763;28;20502;-64
2022/03/04 09:58:38;;;;;;;30.80;18.02;;;;;;;;;;5090585;28;20040;-65
2022/03/04 10:01:11;;;;;;;30.60;17.38;;;;;;;;;;5089456;28;20089;-64
2022/03/04 10:03:40;;;;;;;30.70;17.38;;;;;;;;;;5090357;28;20105;-64
2022/03/04 10:06:06;;;;;;;30.00;17.50;;;;;;;;;;5091434;28;20067;-64
2022/03/04 10:08:42;;;;;;;31.67;18.50;;;;;;;;;;5091762;28;20040;-63
2022/03/04 10:11:09;;;;;;;30.33;17.88;;;;;;;;;;5090942;28;20089;-64
2022/03/04 10:13:44;;;;;;;33.83;18.20;;;;;;;;;;5091388;28;20115;-63
2022/03/04 10:16:11;;;;;;;32.53;19.77;;;;;;;;;;5091367;28;20031;-64
2022/03/04 10:18:37;;;;;;;30.67;17.42;;;;;;;;;;5091601;28;20539;-64
2022/03/04 10:21:03;;;;;;;33.20;18.40;;;;;;;;;;5091335;28;20032;-64
2022/03/04 10:23:30;;;;;;;31.70;18.52;;;;;;;;;;5091518;28;20502;-63
2022/03/04 10:25:58;;;;;;;33.67;18.48;;;;;;;;;;5091371;28;20040;-64
2022/03/04 10:28:25;;;;;;;29.95;17.23;;;;;;;;;;5090493;28;20509;-64
2022/03/04 10:30:52;;;;;;;29.48;17.80;;;;;;;;;;5091160;28;20040;-64
2022/03/04 10:33:22;;;;;;;29.95;16.65;;;;;;;;;;5088082;28;20040;-64
2022/03/04 10:36:11;;;;;;;30.63;17.00;;;7.40;99.90;;;;;;5089844;28;20490;-63
2022/03/04 10:38:37;;;;;;;28.73;16.77;;;;;;;;;;5090878;28;20044;-63
2022/03/04 10:41:20;;;;;;;28.17;17.70;;;;;;;;;;5090988;28;20059;-63
2022/03/04 10:43:46;;;;;;;27.98;17.27;;;;;;;;;;5091006;28;20391;-64
2022/03/04 10:46:13;;;;;;;28.10;17.38;;;;;;;;;;5090756;28;20024;-64
2022/03/04 10:48:51;;;;;;;29.10;17.02;;;8.20;99.90;;;;;;5090736;28;20108;-64
2022/03/04 10:51:34;;;;;;;31.80;17.77;;;8.60;99.90;;;;;;5089518;28;20096;-64
2022/03/04 10:54:12;;;;;;;31.55;18.40;;;;;;;;;;5090372;28;20047;-63
2022/03/04 10:56:48;;;;;;;30.13;18.30;;;;;;;;;;5088680;28;20355;-63
2022/03/04 10:59:14;;;;;;;31.58;19.15;;;;;;;;;;5090575;28;20074;-64
2022/03/04 11:01:46;;;;;;;27.20;17.02;;;;;;;;;;5090469;28;20092;-63
2022/03/04 11:04:12;;;;;;;28.88;18.10;;;;;;;;;;5090255;28;20035;-64
2022/03/04 11:06:39;;;;;;;32.13;18.65;;;9.40;99.90;;;;;;5090783;28;20445;-63
2022/03/04 11:09:05;;;;;;;29.80;17.30;;;;;;;;;;5090831;28;20032;-63
2022/03/04 11:11:31;;;;;;;32.10;17.70;;;;;;;;;;5090430;28;20040;-63
2022/03/04 11:13:58;;;;;;;30.30;18.35;;;10.10;99.90;;;;;;5090615;28;20044;-62
2022/03/04 11:16:24;;;;;;;29.40;18.20;;;;;;;;;;5090874;28;20442;-64
2022/03/04 11:18:51;;;;;;;30.27;19.02;;;;;;;;;;5090306;28;20444;-63
2022/03/04 11:21:17;;;;;;;29.23;18.42;;;;;;;;;;5091128;28;20398;-63
2022/03/04 11:23:46;;;;;;;27.95;17.35;;;10.90;99.90;;;;;;5090777;28;20040;-64
2022/03/04 11:26:15;;;;;;;26.88;17.55;;;;;;;;;;5087852;28;20029;-64
2022/03/04 11:28:49;;;;;;;29.90;18.17;;;11.20;99.90;;;;;;5088800;28;20035;-64
2022/03/04 11:31:22;;;;;;;26.55;17.58;;;;;;;;;;5085936;28;20067;-61
2022/03/04 11:33:58;;;;;;;27.50;18.02;;;11.40;99.90;;;;;;5089102;28;20368;-61
2022/03/04 11:36:32;;;;;;;25.83;17.58;;;11.60;99.90;;;;;;5088442;28;20024;-61
2022/03/04 11:39:01;;;;;;;26.55;16.35;;;;;;;;;;5088597;28;20466;-62
2022/03/04 11:41:28;;;;;;;26.70;16.60;;;;;;;;;;5089346;28;20040;-61
2022/03/04 11:43:55;;;;;;;24.75;16.35;;;11.10;99.90;;;;;;5089618;28;20032;-62
2022/03/04 11:46:22;;;;;;;26.70;17.88;;;;;;;;;;5088507;28;20036;-61
2022/03/04 11:49:16;;;;;;;23.95;16.10;;;11.30;99.90;;;;;;5089913;28;20461;-63
2022/03/04 11:52:03;;;;;;;25.05;16.70;;;;;;;;;;5089042;28;20118;-62
2022/03/04 11:54:29;;;;;;;27.02;17.45;;;;;;;;;;5087969;28;20490;-61
2022/03/04 11:56:55;;;;;;;25.67;17.63;;;;;;;;;;5090201;28;20043;-61
2022/03/04 11:59:21;;;;;;;26.13;16.98;;;;;;;;;;5086315;28;20063;-62
2022/03/04 12:01:48;;;;;;;25.30;16.80;;;;;;;;;;5087909;28;20052;-61
2022/03/04 12:04:17;;;;;;;24.80;15.55;;;;;;;;;;5087265;28;20410;-62
2022/03/04 12:07:06;;;;;;;23.67;16.00;;;12.10;99.90;;;;;;5088259;28;20076;-62
2022/03/04 12:09:33;;;;;;;24.83;15.93;;;;;;;;;;5093381;28;20115;-61
2022/03/04 12:12:24;;;;;;;22.38;16.08;;;;;;;;;;5092871;28;20447;-62
2022/03/04 12:15:09;;;;;;;25.73;17.02;;;;;;;;;;5090030;28;20067;-61
2022/03/04 12:18:26;;;;;;;21.10;14.93;;;12.20;99.90;;;;;;5092245;28;20433;-61
2022/03/04 12:20:55;;;;;;;22.33;15.25;;;;;;;;;;5011502;28;20041;-63
2022/03/04 12:23:31;;;;;;;17.25;12.95;;;;;;;;;;5011634;28;20038;-62
2022/03/04 12:25:59;;;;;;;17.38;13.13;;;;;;;;;;5011428;28;20378;-61
2022/03/04 12:28:31;;;;;;;20.40;14.07;;;;;;;;;;5011458;28;20504;-62
2022/03/04 12:31:06;;;;;;;23.65;14.07;;;;;;;;;;5011396;28;20038;-62
2022/03/04 12:33:40;;;;;;;23.02;14.45;;;14.10;99.90;;;;;;5011501;28;20124;-62
2022/03/04 12:36:09;;;;;;;17.10;12.93;;;13.90;99.90;;;;;;5011101;28;20069;-63
2022/03/04 12:38:40;;;;;;;18.75;13.18;;;;;;;;;;5011265;28;20049;-61
2022/03/04 12:41:14;;;;;;;19.10;13.15;;;;;;;;;;4994583;28;20058;-61
2022/03/04 12:43:40;;;;;;;17.20;11.93;;;;;;;;;;5011404;28;20045;-62
2022/03/04 12:46:06;;;;;;;15.82;11.88;;;;;;;;;;5010844;28;20056;-62
2022/03/04 12:48:32;;;;;;;17.75;12.65;;;;;;;;;;5011143;28;20399;-62
2022/03/04 12:50:58;;;;;;;16.40;11.80;;;;;;;;;;5037951;28;20048;-62
2022/03/04 12:53:28;;;;;;;16.42;11.57;;;13.90;99.90;;;;;;5093376;28;20513;-62
2022/03/04 12:55:58;;;;;;;17.08;12.13;;;;;;;;;;5092842;28;20044;-62
2022/03/04 12:58:36;;;;;;;15.55;10.95;;;;;;;;;;5093233;28;20040;-62
2022/03/04 13:01:03;;;;;;;15.50;11.07;;;;;;;;;;5093436;28;20044;-62
2022/03/04 13:03:30;;;;;;;15.00;10.68;;;;;;;;;;5092989;28;20040;-61
2022/03/04 13:05:56;;;;;;;17.60;11.23;;;;;;;;;;5093016;28;20040;-61
2022/03/04 13:08:22;;;;;;;14.75;9.88;;;;;;;;;;5093031;28;20044;-62
2022/03/04 13:10:49;;;;;;;16.75;10.80;;;;;;;;;;5092843;28;20107;-61
2022/03/04 13:13:15;;;;;;;14.00;9.57;;;;;;;;;;5092512;28;20049;-62
2022/03/04 13:15:46;;;;;;;15.13;9.80;;;16.30;99.90;;;;;;5092654;28;20048;-62
2022/03/04 13:18:12;;;;;;;15.57;9.38;;;;;;;;;;5092413;28;20049;-62
2022/03/04 13:20:38;;;;;;;13.38;8.73;;;;;;;;;;5091791;28;20032;-62
2022/03/04 13:23:05;;;;;;;10.77;8.07;;;;;;;;;;5092705;28;20482;-62
2022/03/04 13:25:31;;;;;;;11.20;8.43;;;;;;;;;;5092554;28;20490;-62
2022/03/04 13:27:57;;;;;;;13.32;8.68;;;;;;;;;;5092395;28;20043;-63
2022/03/04 13:30:24;;;;;;;13.75;8.40;;;;;;;;;;5090256;28;20051;-62
2022/03/04 13:32:54;;;;;;;15.15;8.43;;;;;;;;;;5092777;28;20498;-62
2022/03/04 13:35:21;;;;;;;14.18;8.98;;;18.30;95.20;;;;;;5092369;28;20044;-62
2022/03/04 13:37:48;;;;;;;11.43;8.07;;;;;;;;;;5092292;28;20044;-63
2022/03/04 13:40:19;;;;;;;14.23;9.65;;;20.20;92.60;;;;;;5092002;28;20077;-61
2022/03/04 13:42:52;;;;;;;11.93;8.45;;;;;;;;;;5092378;28;20127;-62
2022/03/04 13:45:36;;;;;;;11.38;8.32;;;21.20;90.80;;;;;;5092408;28;20039;-62
2022/03/04 13:48:05;;;;;;;11.25;8.48;;;22.00;91.10;;;;;;5092347;28;20040;-62
2022/03/04 13:50:38;;;;;;;13.70;9.70;;;21.70;86.20;;;;;;5092097;28;20394;-63
2022/03/04 13:53:05;;;;;;;15.52;10.50;;;;;;;;;;5091822;28;20497;-62
2022/03/04 13:55:31;;;;;;;12.07;9.20;;;;;;;;;;5091889;28;20047;-63
2022/03/04 13:58:01;;;;;;;14.00;9.82;;;;;;;;;;5092182;28;20044;-62
2022/03/04 14:00:35;;;;;;;13.48;9.98;;;23.00;81.60;;;;;;5090906;28;20107;-63
2022/03/04 14:03:09;;;;;;;13.60;10.13;;;23.70;84.50;;;;;;5091831;28;20058;-63
2022/03/04 14:05:37;;;;;;;12.75;9.70;;;24.00;80.10;;;;;;5073465;28;20039;-64
2022/03/04 14:08:09;;;;;;;13.60;9.77;;;;;;;;;;5091753;28;20081;-62
2022/03/04 14:10:36;;;;;;;15.70;10.43;;;;;;;;;;5091709;28;20052;-61
2022/03/04 14:13:03;;;;;;;13.18;9.63;;;21.20;78.30;;;;;;5091857;28;20028;-62
2022/03/04 14:15:30;;;;;;;14.27;10.45;;;20.70;79.30;;;;;;5091370;28;20127;-62